createdAt,value
2019-03-31T00:02:02.981Z,99.90
2019-03-31T00:04:32.626Z,99.90
2019-03-31T00:07:05.347Z,99.90
2019-03-31T00:09:36.862Z,99.90
2019-03-31T00:12:06.670Z,99.90
2019-03-31T00:14:36.372Z,99.90
2019-03-31T00:17:06.000Z,99.90
2019-03-31T00:19:35.845Z,99.90
2019-03-31T00:22:05.732Z,99.90
2019-03-31T00:24:35.500Z,99.90
2019-03-31T00:27:05.164Z,99.90
2019-03-31T00:29:34.948Z,99.90
2019-03-31T00:32:04.855Z,99.90
2019-03-31T00:34:35.083Z,99.90
2019-03-31T00:37:08.005Z,99.90
2019-03-31T00:39:38.183Z,99.90
2019-03-31T00:42:07.990Z,99.90
2019-03-31T00:44:37.986Z,99.90
2019-03-31T00:47:10.584Z,99.90
2019-03-31T00:49:43.369Z,99.90
2019-03-31T00:52:13.595Z,99.90
2019-03-31T00:54:44.005Z,99.90
2019-03-31T00:57:15.487Z,99.90
2019-03-31T00:59:45.284Z,99.90
2019-03-31T01:02:16.683Z,99.90
2019-03-31T01:04:46.442Z,99.90
2019-03-31T01:07:16.770Z,99.90
2019-03-31T01:09:46.623Z,99.90
2019-03-31T01:12:29.376Z,99.90
2019-03-31T01:14:59.259Z,99.90
2019-03-31T01:17:31.964Z,99.90
2019-03-31T01:20:02.501Z,99.90
2019-03-31T01:22:32.451Z,99.90
2019-03-31T01:25:06.233Z,99.90
2019-03-31T01:27:38.960Z,99.90
2019-03-31T01:30:10.307Z,99.90
2019-03-31T01:32:40.164Z,99.90
2019-03-31T01:35:10.613Z,99.90
2019-03-31T01:37:42.574Z,99.90
2019-03-31T01:40:12.185Z,99.90
2019-03-31T01:42:41.897Z,99.90
2019-03-31T01:45:11.942Z,99.90
2019-03-31T01:47:41.593Z,99.90
2019-03-31T01:50:11.940Z,99.90
2019-03-31T01:52:41.835Z,99.90
2019-03-31T01:55:11.819Z,99.90
2019-03-31T01:57:44.702Z,99.90
2019-03-31T02:00:27.604Z,99.90
2019-03-31T02:02:57.342Z,99.90
2019-03-31T02:05:27.226Z,99.90
2019-03-31T02:07:57.196Z,99.90
2019-03-31T02:10:27.428Z,99.90
2019-03-31T02:12:57.196Z,99.90
2019-03-31T02:15:30.042Z,99.90
2019-03-31T02:17:59.838Z,99.90
2019-03-31T02:20:29.838Z,99.90
2019-03-31T02:22:59.479Z,99.90
2019-03-31T02:25:29.330Z,99.90
2019-03-31T02:27:58.940Z,99.90
2019-03-31T02:30:28.687Z,99.90
2019-03-31T02:32:58.308Z,99.90
2019-03-31T02:35:28.043Z,99.90
2019-03-31T02:37:57.711Z,99.90
2019-03-31T02:40:30.497Z,99.90
2019-03-31T02:43:00.129Z,99.90
2019-03-31T02:45:29.940Z,99.90
2019-03-31T02:47:59.886Z,99.90
2019-03-31T02:50:49.468Z,99.90
2019-03-31T02:53:19.342Z,99.90
2019-03-31T02:55:49.473Z,99.90
2019-03-31T02:58:19.681Z,99.90
2019-03-31T03:00:49.442Z,99.90
2019-03-31T03:03:19.854Z,99.90
2019-03-31T03:05:49.953Z,99.90
2019-03-31T03:08:20.319Z,99.90
2019-03-31T03:10:51.970Z,99.90
2019-03-31T03:13:23.365Z,99.90
2019-03-31T03:16:27.334Z,99.90
2019-03-31T03:18:57.505Z,99.90
2019-03-31T03:21:27.118Z,99.90
2019-03-31T03:23:56.849Z,99.90
2019-03-31T03:26:26.407Z,99.90
2019-03-31T03:28:57.962Z,99.90
2019-03-31T03:31:27.596Z,99.90
2019-03-31T03:33:57.345Z,99.90
2019-03-31T03:36:26.896Z,99.90
2019-03-31T03:38:56.772Z,99.90
2019-03-31T03:45:10.729Z,99.90
2019-03-31T03:47:43.349Z,99.90
2019-03-31T03:50:13.574Z,99.90
2019-03-31T03:52:43.397Z,99.90
2019-03-31T03:55:13.090Z,99.90
2019-03-31T03:57:42.718Z,99.90
2019-03-31T04:00:12.531Z,99.90
2019-03-31T04:02:42.167Z,99.90
2019-03-31T04:05:12.987Z,99.90
2019-03-31T04:07:42.822Z,99.90
2019-03-31T04:11:06.232Z,99.90
2019-03-31T04:13:36.346Z,99.90
2019-03-31T04:16:05.956Z,99.90
2019-03-31T04:18:35.318Z,99.90
2019-03-31T04:21:04.965Z,99.90
2019-03-31T04:23:34.759Z,99.90
2019-03-31T04:26:04.741Z,99.90
2019-03-31T04:28:37.140Z,99.90
2019-03-31T04:31:06.638Z,99.90
2019-03-31T04:33:50.781Z,99.90
2019-03-31T04:36:07.777Z,99.90
2019-03-31T04:38:37.433Z,99.90
2019-03-31T04:41:07.090Z,99.90
2019-03-31T04:43:36.635Z,99.90
2019-03-31T04:46:06.287Z,99.90
2019-03-31T04:48:36.150Z,99.90
2019-03-31T04:51:05.849Z,99.90
2019-03-31T04:53:35.312Z,99.90
2019-03-31T04:56:05.063Z,99.90
2019-03-31T04:58:34.592Z,99.90
2019-03-31T05:01:04.171Z,99.90
2019-03-31T05:03:33.968Z,99.90
2019-03-31T05:06:03.723Z,99.90
2019-03-31T05:08:33.525Z,99.90
2019-03-31T05:11:06.635Z,99.90
2019-03-31T05:13:36.234Z,99.90
2019-03-31T05:16:06.203Z,99.90
2019-03-31T05:18:35.867Z,99.90
2019-03-31T05:21:06.843Z,99.90
2019-03-31T05:23:36.892Z,99.90
2019-03-31T05:26:06.438Z,99.90
2019-03-31T05:28:36.151Z,99.90
2019-03-31T05:31:06.425Z,99.90
2019-03-31T05:33:35.979Z,99.90
2019-03-31T05:36:05.734Z,99.90
2019-03-31T05:38:35.421Z,99.90
2019-03-31T05:41:05.033Z,99.90
2019-03-31T05:43:34.774Z,99.90
2019-03-31T05:46:04.515Z,99.90
2019-03-31T05:48:34.238Z,99.90
2019-03-31T05:51:03.852Z,99.90
2019-03-31T05:53:33.480Z,99.90
2019-03-31T05:56:03.107Z,99.90
2019-03-31T05:58:32.677Z,99.90
2019-03-31T06:01:02.407Z,99.90
2019-03-31T06:03:31.938Z,99.90
2019-03-31T06:06:01.595Z,99.90
2019-03-31T06:08:31.454Z,99.90
2019-03-31T06:11:01.140Z,99.90
2019-03-31T06:13:30.791Z,99.90
2019-03-31T06:16:00.830Z,99.90
2019-03-31T06:18:30.536Z,99.90
2019-03-31T06:21:00.321Z,99.90
2019-03-31T06:23:30.008Z,99.90
2019-03-31T06:25:59.994Z,99.90
2019-03-31T06:28:32.853Z,99.90
2019-03-31T06:31:02.586Z,99.90
2019-03-31T06:33:32.189Z,99.90
2019-03-31T06:36:01.969Z,99.90
2019-03-31T06:38:34.674Z,99.90
2019-03-31T06:41:04.508Z,99.90
2019-03-31T06:43:36.594Z,99.90
2019-03-31T06:46:06.381Z,99.90
2019-03-31T06:48:35.978Z,99.90
2019-03-31T06:51:17.941Z,99.90
2019-03-31T06:53:52.710Z,99.90
2019-03-31T06:56:23.394Z,99.90
2019-03-31T06:59:02.237Z,99.90
2019-03-31T07:01:33.729Z,99.90
2019-03-31T07:04:03.480Z,99.90
2019-03-31T07:06:36.616Z,99.90
2019-03-31T07:09:41.578Z,99.90
2019-03-31T07:12:35.697Z,99.90
2019-03-31T07:15:12.558Z,99.90
2019-03-31T07:17:55.084Z,99.90
2019-03-31T07:20:27.046Z,99.90
2019-03-31T07:23:19.264Z,99.90
2019-03-31T07:28:46.976Z,99.90
2019-03-31T07:32:08.578Z,99.90
2019-03-31T07:35:17.814Z,99.90
2019-03-31T07:37:47.411Z,99.90
2019-03-31T07:40:15.665Z,99.90
2019-03-31T07:42:52.966Z,99.90
2019-03-31T07:45:24.193Z,99.90
2019-03-31T07:48:05.235Z,99.90
2019-03-31T07:51:11.051Z,99.90
2019-03-31T07:53:40.630Z,99.90
2019-03-31T07:56:10.242Z,99.90
2019-03-31T07:58:42.134Z,99.90
2019-03-31T08:01:14.636Z,99.90
2019-03-31T08:03:44.176Z,99.90
2019-03-31T08:06:14.184Z,99.90
2019-03-31T08:08:45.761Z,99.90
2019-03-31T08:11:17.067Z,99.90
2019-03-31T08:13:49.707Z,99.90
2019-03-31T08:16:19.376Z,99.90
2019-03-31T08:18:49.352Z,99.90
2019-03-31T08:21:19.639Z,99.90
2019-03-31T08:23:49.137Z,99.90
2019-03-31T08:26:19.027Z,99.90
2019-03-31T08:28:48.841Z,99.90
2019-03-31T08:31:18.546Z,99.90
2019-03-31T08:33:48.413Z,99.90
2019-03-31T08:36:17.937Z,99.90
2019-03-31T08:38:47.465Z,99.90
2019-03-31T08:41:19.835Z,99.90
2019-03-31T08:43:49.424Z,99.90
2019-03-31T08:46:22.074Z,99.90
2019-03-31T08:48:51.788Z,99.90
2019-03-31T08:51:21.498Z,99.90
2019-03-31T08:53:51.378Z,99.90
2019-03-31T08:56:20.970Z,99.90
2019-03-31T08:58:50.702Z,99.90
2019-03-31T09:01:21.591Z,99.90
2019-03-31T09:03:51.156Z,99.90
2019-03-31T09:06:20.639Z,99.90
2019-03-31T09:08:50.395Z,99.90
2019-03-31T09:11:19.890Z,99.90
2019-03-31T09:13:49.850Z,99.90
2019-03-31T09:16:19.520Z,99.90
2019-03-31T09:18:49.066Z,99.90
2019-03-31T09:21:19.776Z,99.90
2019-03-31T09:23:49.205Z,99.90
2019-03-31T09:26:18.908Z,99.90
2019-03-31T09:28:48.610Z,99.90
2019-03-31T09:31:21.418Z,99.90
2019-03-31T09:33:51.033Z,99.90
2019-03-31T09:36:20.946Z,99.90
2019-03-31T09:38:52.565Z,99.90
2019-03-31T09:45:20.705Z,99.90
2019-03-31T09:48:44.448Z,99.90
2019-03-31T09:51:14.531Z,99.90
2019-03-31T09:53:44.588Z,99.90
2019-03-31T09:56:18.839Z,99.90
2019-03-31T09:58:48.961Z,99.90
2019-03-31T10:01:18.692Z,99.90
2019-03-31T10:03:48.272Z,99.90
2019-03-31T10:06:29.519Z,99.90
2019-03-31T10:08:49.676Z,99.90
2019-03-31T10:11:19.542Z,99.90
2019-03-31T10:13:53.913Z,99.90
2019-03-31T10:16:23.995Z,99.90
2019-03-31T10:18:53.950Z,99.90
2019-03-31T10:21:26.775Z,99.90
2019-03-31T10:23:56.404Z,99.90
2019-03-31T10:26:32.256Z,99.90
2019-03-31T10:28:58.612Z,99.90
2019-03-31T10:31:28.404Z,99.90
2019-03-31T10:33:58.199Z,99.90
2019-03-31T10:36:28.159Z,99.90
2019-03-31T10:38:57.996Z,99.90
2019-03-31T10:41:30.822Z,99.90
2019-03-31T10:43:59.343Z,99.90
2019-03-31T10:46:29.006Z,99.90
2019-03-31T10:48:58.663Z,99.90
2019-03-31T10:51:29.277Z,99.90
2019-03-31T10:54:32.085Z,99.90
2019-03-31T10:57:02.485Z,99.90
2019-03-31T10:59:32.055Z,99.90
2019-03-31T11:02:01.762Z,99.90
2019-03-31T11:04:31.460Z,99.90
2019-03-31T11:07:03.542Z,99.90
2019-03-31T11:09:34.336Z,99.90
2019-03-31T11:12:06.775Z,99.90
2019-03-31T11:14:36.254Z,99.90
2019-03-31T11:17:13.082Z,99.90
2019-03-31T11:19:42.761Z,99.90
2019-03-31T11:22:19.883Z,99.90
2019-03-31T11:24:49.748Z,99.90
2019-03-31T11:27:19.526Z,99.90
2019-03-31T11:29:51.973Z,99.90
2019-03-31T11:32:21.657Z,99.90
2019-03-31T11:34:51.413Z,99.90
2019-03-31T11:55:00.434Z,99.90
2019-03-31T11:57:57.009Z,99.90
2019-03-31T12:00:54.754Z,99.90
2019-03-31T12:03:45.032Z,99.90
2019-03-31T12:06:19.070Z,99.90
2019-03-31T12:08:48.835Z,99.90
2019-03-31T12:11:18.701Z,99.90
2019-03-31T12:13:48.201Z,99.90
2019-03-31T12:16:17.775Z,99.90
2019-03-31T12:18:47.152Z,99.90
2019-03-31T12:21:19.530Z,99.90
2019-03-31T12:23:49.362Z,99.90
2019-03-31T12:26:23.199Z,99.90
2019-03-31T12:28:55.729Z,99.90
2019-03-31T12:31:26.411Z,99.90
2019-03-31T12:33:56.710Z,99.90
2019-03-31T12:36:26.823Z,99.90
2019-03-31T12:38:56.363Z,99.90
2019-03-31T12:41:25.987Z,99.90
2019-03-31T12:47:46.093Z,99.90
2019-03-31T12:50:15.811Z,99.90
2019-03-31T12:52:47.366Z,99.90
2019-03-31T12:55:16.740Z,99.90
2019-03-31T12:57:46.328Z,99.90
2019-03-31T13:00:16.110Z,99.90
2019-03-31T13:02:46.057Z,99.90
2019-03-31T13:05:15.360Z,99.90
2019-03-31T13:07:55.717Z,99.90
2019-03-31T13:10:15.949Z,99.90
2019-03-31T13:12:45.482Z,99.90
2019-03-31T13:15:15.053Z,99.90
2019-03-31T13:17:44.556Z,99.90
2019-03-31T13:20:14.073Z,99.90
2019-03-31T13:22:45.908Z,99.90
2019-03-31T13:25:15.065Z,99.90
2019-03-31T13:27:44.616Z,98.80
2019-03-31T13:30:14.410Z,98.70
2019-03-31T13:32:43.895Z,92.40
2019-03-31T13:35:13.269Z,82.70
2019-03-31T13:37:42.738Z,99.90
2019-03-31T13:40:12.749Z,99.90
2019-03-31T13:42:53.143Z,99.90
2019-03-31T13:45:23.120Z,99.90
2019-03-31T13:47:52.788Z,95.80
2019-03-31T13:50:22.312Z,95.20
2019-03-31T13:52:51.813Z,76.00
2019-03-31T13:55:21.247Z,77.60
2019-03-31T13:58:05.016Z,68.80
2019-03-31T14:00:45.047Z,70.70
2019-03-31T14:03:22.667Z,84.20
2019-03-31T14:06:04.591Z,70.90
2019-03-31T14:08:36.923Z,73.30
2019-03-31T14:11:06.583Z,74.10
2019-03-31T14:13:38.483Z,72.70
2019-03-31T14:16:07.991Z,69.10
2019-03-31T14:18:37.364Z,64.00
2019-03-31T14:21:06.819Z,72.00
2019-03-31T14:23:36.301Z,72.30
2019-03-31T14:26:05.820Z,70.70
2019-03-31T14:28:35.369Z,70.10
2019-03-31T14:31:04.786Z,61.30
2019-03-31T14:33:34.242Z,61.40
2019-03-31T14:36:03.648Z,63.60
2019-03-31T14:38:39.955Z,61.20
2019-03-31T14:41:04.107Z,69.60
2019-03-31T14:43:33.662Z,59.10
2019-03-31T14:46:03.235Z,59.10
2019-03-31T14:48:32.678Z,57.70
2019-03-31T14:51:02.137Z,60.50
2019-03-31T14:53:33.468Z,59.70
2019-03-31T14:56:02.895Z,56.70
2019-03-31T14:58:32.361Z,56.30
2019-03-31T15:01:01.982Z,58.70
2019-03-31T15:03:31.479Z,61.60
2019-03-31T15:06:03.642Z,62.40
2019-03-31T15:08:33.031Z,66.40
2019-03-31T15:11:02.398Z,64.50
2019-03-31T15:13:34.687Z,61.80
2019-03-31T15:16:04.476Z,57.80
2019-03-31T15:20:00.160Z,54.90
2019-03-31T15:21:21.867Z,56.00
2019-03-31T15:23:55.036Z,64.50
2019-03-31T15:32:23.575Z,66.20
2019-03-31T15:34:52.678Z,65.70
2019-03-31T15:37:22.190Z,66.20
2019-03-31T15:39:51.681Z,73.30
2019-03-31T15:42:23.243Z,70.00
2019-03-31T15:44:52.651Z,65.80
2019-03-31T15:47:34.491Z,70.20
2019-03-31T15:50:12.746Z,72.70
2019-03-31T15:52:42.384Z,79.30
2019-03-31T15:55:11.972Z,84.80
2019-03-31T15:57:41.479Z,94.00
2019-03-31T16:00:11.118Z,99.90
2019-03-31T16:02:40.498Z,99.90
2019-03-31T16:05:12.854Z,99.90
2019-03-31T16:07:44.802Z,99.90
2019-03-31T16:10:13.546Z,99.90
2019-03-31T16:12:42.325Z,99.90
2019-03-31T16:15:13.948Z,99.90
2019-03-31T16:17:42.842Z,99.90
2019-03-31T16:20:11.773Z,99.90
2019-03-31T16:22:40.631Z,99.90
2019-03-31T16:25:31.336Z,99.90
2019-03-31T16:28:06.538Z,99.90
2019-03-31T16:30:39.114Z,99.90
2019-03-31T16:33:11.038Z,99.90
2019-03-31T16:35:56.677Z,99.90
2019-03-31T16:38:28.806Z,99.90
2019-03-31T16:40:58.711Z,99.90
2019-03-31T16:43:30.191Z,99.90
2019-03-31T16:45:58.950Z,99.90
2019-03-31T16:48:36.144Z,99.90
2019-03-31T16:51:05.238Z,99.90
2019-03-31T16:53:34.256Z,99.90
2019-03-31T16:56:04.533Z,99.90
2019-03-31T16:58:33.603Z,99.90
2019-03-31T17:01:02.743Z,99.90
2019-03-31T17:03:31.798Z,99.90
2019-03-31T17:06:01.197Z,99.90
2019-03-31T17:08:33.487Z,99.90
2019-03-31T17:11:12.319Z,99.90
2019-03-31T17:13:43.616Z,99.90
2019-03-31T17:16:15.540Z,99.90
2019-03-31T17:18:44.996Z,99.90
2019-03-31T17:21:14.821Z,99.90
2019-03-31T17:23:47.960Z,99.90
2019-03-31T17:26:17.506Z,99.90
2019-03-31T17:28:49.221Z,99.90
2019-03-31T17:34:15.917Z,99.90
2019-03-31T17:36:45.440Z,99.90
2019-03-31T17:39:14.828Z,99.90
2019-03-31T17:41:45.282Z,99.90
2019-03-31T17:44:14.768Z,99.90
2019-03-31T17:47:04.767Z,99.90
2019-03-31T17:49:38.149Z,99.90
2019-03-31T17:52:17.850Z,99.90
2019-03-31T17:55:35.560Z,99.90
2019-03-31T17:58:28.781Z,99.90
2019-03-31T18:01:04.421Z,99.90
2019-03-31T18:04:03.134Z,99.90
2019-03-31T18:06:35.697Z,99.90
2019-03-31T18:09:11.386Z,99.90
2019-03-31T18:12:12.634Z,99.90
2019-03-31T18:14:44.491Z,99.90
2019-03-31T18:17:14.100Z,99.90
2019-03-31T18:19:46.780Z,99.90
2019-03-31T18:22:26.023Z,99.90
2019-03-31T18:25:21.392Z,99.90
2019-03-31T18:27:50.819Z,99.90
2019-03-31T18:30:21.194Z,99.90
2019-03-31T18:32:50.900Z,99.90
2019-03-31T18:35:20.270Z,99.90
2019-03-31T18:37:49.835Z,99.90
2019-03-31T18:40:19.276Z,99.90
2019-03-31T18:42:48.790Z,99.90
2019-03-31T18:45:20.573Z,99.90
2019-03-31T18:47:49.220Z,99.90
2019-03-31T18:50:18.121Z,99.90
2019-03-31T18:52:47.624Z,99.90
2019-03-31T18:55:26.527Z,99.90
2019-03-31T18:58:17.602Z,99.90
2019-03-31T19:01:08.769Z,99.90
2019-03-31T19:04:05.580Z,99.90
2019-03-31T19:06:41.470Z,99.90
2019-03-31T19:09:38.567Z,99.90
2019-03-31T19:12:38.380Z,99.90
2019-03-31T19:15:31.128Z,99.90
2019-03-31T19:18:21.538Z,99.90
2019-03-31T19:21:22.389Z,99.90
2019-03-31T19:24:05.488Z,99.90
2019-03-31T19:26:51.342Z,99.90
2019-03-31T19:29:31.098Z,99.90
2019-03-31T19:32:09.557Z,99.90
2019-03-31T19:35:06.756Z,99.90
2019-03-31T19:37:53.127Z,99.90
2019-03-31T19:40:44.279Z,99.90
2019-03-31T19:43:21.999Z,99.90
2019-03-31T19:46:16.210Z,99.90
2019-03-31T19:48:53.796Z,99.90
2019-03-31T19:51:34.889Z,99.90
2019-03-31T19:54:12.827Z,99.90
2019-03-31T19:57:00.722Z,99.90
2019-03-31T19:59:54.843Z,99.90
2019-03-31T20:02:41.590Z,99.90
2019-03-31T20:05:45.215Z,99.90
2019-03-31T20:08:30.880Z,99.90
2019-03-31T20:11:54.161Z,99.90
2019-03-31T20:15:07.344Z,99.90
2019-03-31T20:17:44.594Z,99.90
2019-03-31T20:20:25.760Z,99.90
2019-03-31T20:23:14.255Z,99.90
2019-03-31T20:26:03.985Z,99.90
2019-03-31T20:29:07.141Z,99.90
2019-03-31T20:32:14.880Z,99.90
2019-03-31T20:35:04.530Z,99.90
2019-03-31T20:38:07.395Z,99.90
2019-03-31T20:41:01.456Z,99.90
2019-03-31T20:43:47.669Z,99.90
2019-03-31T20:46:19.512Z,99.90
2019-03-31T20:48:55.605Z,99.90
2019-03-31T20:51:24.629Z,99.90
2019-03-31T20:54:00.515Z,99.90
2019-03-31T20:56:36.147Z,99.90
2019-03-31T21:08:56.848Z,99.90
2019-03-31T21:11:28.613Z,99.90
2019-03-31T21:14:02.773Z,99.90
2019-03-31T21:16:32.443Z,99.90
2019-03-31T21:19:01.459Z,99.90
2019-03-31T21:21:30.496Z,99.90
2019-03-31T21:23:59.664Z,99.90
2019-03-31T21:26:28.725Z,99.90
2019-03-31T21:28:57.766Z,99.90
2019-03-31T21:31:26.806Z,99.90
2019-03-31T21:33:55.913Z,99.90
2019-03-31T21:36:25.439Z,99.90
2019-03-31T21:38:54.571Z,99.90
2019-03-31T21:41:23.419Z,99.90
2019-03-31T21:43:52.423Z,99.90
2019-03-31T21:46:21.449Z,99.90
2019-03-31T21:48:50.468Z,99.90
2019-03-31T21:51:19.466Z,99.90
2019-03-31T21:53:48.557Z,99.90
2019-03-31T21:56:17.716Z,99.90
2019-03-31T21:58:46.710Z,99.90
2019-03-31T22:01:15.917Z,99.90
2019-03-31T22:03:44.990Z,99.90
2019-03-31T22:06:14.003Z,99.90
2019-03-31T22:08:42.977Z,99.90
2019-03-31T22:11:11.919Z,99.90
2019-03-31T22:13:40.839Z,99.90
2019-03-31T22:16:09.714Z,99.90
2019-03-31T22:18:38.654Z,99.90
2019-03-31T22:21:07.670Z,99.90
2019-03-31T22:23:36.684Z,99.90
2019-03-31T22:26:05.767Z,99.90
2019-03-31T22:28:34.882Z,99.90
2019-03-31T22:31:03.876Z,99.90
2019-03-31T22:33:32.978Z,99.90
2019-03-31T22:36:19.430Z,99.90
2019-03-31T22:38:48.661Z,99.90
2019-03-31T22:41:17.967Z,99.90
2019-03-31T22:43:47.604Z,99.90
2019-03-31T22:46:16.734Z,99.90
2019-03-31T22:48:45.828Z,99.90
2019-03-31T22:51:14.915Z,99.90
2019-03-31T22:53:43.884Z,99.90
2019-03-31T22:56:12.949Z,99.90
2019-03-31T22:58:42.108Z,99.90
2019-03-31T23:01:11.269Z,99.90
2019-03-31T23:03:40.305Z,99.90
2019-03-31T23:06:09.463Z,99.90
2019-03-31T23:08:38.559Z,99.90
2019-03-31T23:11:07.682Z,99.90
2019-03-31T23:13:36.546Z,99.90
2019-03-31T23:16:05.541Z,99.90
2019-03-31T23:18:34.584Z,99.90
2019-03-31T23:21:03.525Z,99.90
2019-03-31T23:23:32.528Z,99.90
2019-03-31T23:26:01.630Z,99.90
2019-03-31T23:28:30.831Z,99.90
2019-03-31T23:30:59.831Z,99.90
2019-03-31T23:33:30.678Z,99.90
2019-03-31T23:35:59.614Z,99.90
2019-03-31T23:38:31.620Z,99.90
2019-03-31T23:41:00.702Z,99.90
2019-03-31T23:43:29.727Z,99.90
2019-03-31T23:45:58.842Z,99.90
2019-03-31T23:48:27.897Z,99.90
2019-03-31T23:50:56.849Z,99.90
2019-03-31T23:53:28.550Z,99.90
2019-03-31T23:55:57.601Z,99.90
2019-03-31T23:58:26.671Z,99.90
